sensor_id;sensor_type;location;lat;lon;timestamp;pressure;altitude;pressure_sealevel;temperature;humidity
82006;BME280;71529;47.484;19.064;2023-09-19T05:22:15;99953.44;;;21.50;65.22
82006;BME280;71529;47.484;19.064;2023-09-19T05:24:45;99958.66;;;21.52;65.83
82006;BME280;71529;47.484;19.064;2023-09-19T05:27:16;99958.41;;;21.60;65.32
82006;BME280;71529;47.484;19.064;2023-09-19T05:29:44;99966.81;;;21.52;64.95
82006;BME280;71529;47.484;19.064;2023-09-19T05:32:12;99971.25;;;21.40;65.58
82006;BME280;71529;47.484;19.064;2023-09-19T05:34:41;99974.44;;;21.24;66.12
82006;BME280;71529;47.484;19.064;2023-09-19T05:37:09;99965.81;;;21.33;65.56
82006;BME280;71529;47.484;19.064;2023-09-19T05:39:38;99965.00;;;21.26;65.61
82006;BME280;71529;47.484;19.064;2023-09-19T05:42:06;99972.09;;;21.34;66.06
82006;BME280;71529;47.484;19.064;2023-09-19T05:44:35;99977.97;;;21.24;65.64
82006;BME280;71529;47.484;19.064;2023-09-19T05:47:04;99959.19;;;21.16;67.01
82006;BME280;71529;47.484;19.064;2023-09-19T05:49:32;99954.19;;;21.13;65.92
82006;BME280;71529;47.484;19.064;2023-09-19T05:52:00;99963.16;;;21.14;66.48
82006;BME280;71529;47.484;19.064;2023-09-19T05:54:29;99969.22;;;21.22;65.53
82006;BME280;71529;47.484;19.064;2023-09-19T05:56:58;99979.22;;;21.28;65.22
82006;BME280;71529;47.484;19.064;2023-09-19T05:59:26;99983.00;;;21.27;65.02
82006;BME280;71529;47.484;19.064;2023-09-19T06:01:54;99980.50;;;21.19;65.51
82006;BME280;71529;47.484;19.064;2023-09-19T06:04:23;99984.91;;;21.20;65.53
82006;BME280;71529;47.484;19.064;2023-09-19T06:06:52;99989.25;;;21.28;64.95
82006;BME280;71529;47.484;19.064;2023-09-19T06:09:20;99978.84;;;21.18;65.60
82006;BME280;71529;47.484;19.064;2023-09-19T06:11:50;99981.09;;;21.34;64.17
82006;BME280;71529;47.484;19.064;2023-09-19T06:14:20;99983.41;;;21.31;63.94
82006;BME280;71529;47.484;19.064;2023-09-19T06:16:50;99990.31;;;21.20;64.28
82006;BME280;71529;47.484;19.064;2023-09-19T06:19:21;99986.34;;;21.23;64.44
82006;BME280;71529;47.484;19.064;2023-09-19T06:21:52;99989.47;;;21.20;64.31
82006;BME280;71529;47.484;19.064;2023-09-19T06:24:21;99990.94;;;21.16;64.64
82006;BME280;71529;47.484;19.064;2023-09-19T06:26:49;99988.22;;;21.22;64.30
82006;BME280;71529;47.484;19.064;2023-09-19T06:29:20;100002.00;;;21.21;64.91
82006;BME280;71529;47.484;19.064;2023-09-19T06:31:50;100002.03;;;21.08;65.12
82006;BME280;71529;47.484;19.064;2023-09-19T06:34:18;100012.69;;;21.09;64.96
82006;BME280;71529;47.484;19.064;2023-09-19T06:36:47;100012.06;;;21.07;65.01
82006;BME280;71529;47.484;19.064;2023-09-19T06:39:15;100009.16;;;21.02;65.25
82006;BME280;71529;47.484;19.064;2023-09-19T06:41:43;100006.19;;;21.10;65.54
82006;BME280;71529;47.484;19.064;2023-09-19T06:44:12;100020.88;;;21.03;64.81
82006;BME280;71529;47.484;19.064;2023-09-19T06:46:42;100016.25;;;21.03;65.06
82006;BME280;71529;47.484;19.064;2023-09-19T06:49:14;100024.59;;;21.02;64.93
82006;BME280;71529;47.484;19.064;2023-09-19T06:51:43;100017.91;;;20.91;65.78
82006;BME280;71529;47.484;19.064;2023-09-19T06:54:11;100031.25;;;20.92;65.55
82006;BME280;71529;47.484;19.064;2023-09-19T06:56:39;100031.06;;;20.81;66.54
82006;BME280;71529;47.484;19.064;2023-09-19T06:59:08;100032.94;;;20.80;66.42
82006;BME280;71529;47.484;19.064;2023-09-19T07:01:36;100030.84;;;20.82;65.98
82006;BME280;71529;47.484;19.064;2023-09-19T07:04:06;100045.88;;;20.78;66.79
82006;BME280;71529;47.484;19.064;2023-09-19T07:06:34;100050.91;;;20.68;67.69
82006;BME280;71529;47.484;19.064;2023-09-19T07:09:03;100044.88;;;20.73;67.64
82006;BME280;71529;47.484;19.064;2023-09-19T07:11:33;100056.13;;;20.70;67.68
82006;BME280;71529;47.484;19.064;2023-09-19T07:14:01;100073.03;;;20.59;68.08
82006;BME280;71529;47.484;19.064;2023-09-19T07:16:30;100075.53;;;20.60;68.79
82006;BME280;71529;47.484;19.064;2023-09-19T07:18:58;100075.13;;;20.63;68.39
82006;BME280;71529;47.484;19.064;2023-09-19T07:21:28;100072.41;;;20.57;68.77
82006;BME280;71529;47.484;19.064;2023-09-19T07:23:56;100077.78;;;20.37;69.86
82006;BME280;71529;47.484;19.064;2023-09-19T07:26:24;100078.84;;;20.49;70.25
82006;BME280;71529;47.484;19.064;2023-09-19T07:28:53;100077.84;;;20.50;70.42
82006;BME280;71529;47.484;19.064;2023-09-19T07:31:21;100085.13;;;20.50;70.53
82006;BME280;71529;47.484;19.064;2023-09-19T07:33:51;100076.78;;;20.51;70.91
82006;BME280;71529;47.484;19.064;2023-09-19T07:36:20;100084.13;;;20.57;71.29
82006;BME280;71529;47.484;19.064;2023-09-19T07:38:52;100079.50;;;20.58;69.92
82006;BME280;71529;47.484;19.064;2023-09-19T07:41:32;100081.41;;;20.70;69.03
82006;BME280;71529;47.484;19.064;2023-09-19T07:44:01;100099.97;;;20.60;69.16
82006;BME280;71529;47.484;19.064;2023-09-19T07:46:29;100089.94;;;20.54;69.96
82006;BME280;71529;47.484;19.064;2023-09-19T07:48:58;100105.38;;;20.47;70.40
82006;BME280;71529;47.484;19.064;2023-09-19T07:51:27;100106.63;;;20.51;70.18
82006;BME280;71529;47.484;19.064;2023-09-19T07:53:57;100106.22;;;20.48;70.67
82006;BME280;71529;47.484;19.064;2023-09-19T07:56:26;100110.59;;;20.49;70.19
82006;BME280;71529;47.484;19.064;2023-09-19T07:58:54;100110.19;;;20.52;70.01
82006;BME280;71529;47.484;19.064;2023-09-19T08:01:24;100117.28;;;20.46;70.88
82006;BME280;71529;47.484;19.064;2023-09-19T08:03:54;100124.97;;;20.43;71.78
82006;BME280;71529;47.484;19.064;2023-09-19T08:06:22;100122.06;;;20.38;71.17
82006;BME280;71529;47.484;19.064;2023-09-19T08:08:51;100124.34;;;20.41;70.74
82006;BME280;71529;47.484;19.064;2023-09-19T08:11:23;100126.22;;;20.40;70.78
82006;BME280;71529;47.484;19.064;2023-09-19T08:13:51;100134.41;;;20.53;70.29
82006;BME280;71529;47.484;19.064;2023-09-19T08:16:19;100142.53;;;20.47;71.49
82006;BME280;71529;47.484;19.064;2023-09-19T08:18:49;100145.84;;;20.42;71.70
82006;BME280;71529;47.484;19.064;2023-09-19T08:21:22;100142.47;;;20.34;73.32
82006;BME280;71529;47.484;19.064;2023-09-19T08:23:51;100152.69;;;20.32;72.80
82006;BME280;71529;47.484;19.064;2023-09-19T08:26:19;100155.03;;;20.41;71.92
82006;BME280;71529;47.484;19.064;2023-09-19T08:28:50;100147.94;;;20.40;70.75
82006;BME280;71529;47.484;19.064;2023-09-19T08:31:20;100156.06;;;20.40;71.27
82006;BME280;71529;47.484;19.064;2023-09-19T08:33:48;100153.97;;;20.36;72.26
82006;BME280;71529;47.484;19.064;2023-09-19T08:36:18;100153.56;;;20.39;72.27
82006;BME280;71529;47.484;19.064;2023-09-19T08:38:46;100158.97;;;20.32;72.82
82006;BME280;71529;47.484;19.064;2023-09-19T08:41:14;100171.31;;;20.41;71.36
82006;BME280;71529;47.484;19.064;2023-09-19T08:43:43;100170.69;;;20.39;71.49
82006;BME280;71529;47.484;19.064;2023-09-19T08:46:15;100183.84;;;20.49;70.95
82006;BME280;71529;47.484;19.064;2023-09-19T08:48:46;100185.31;;;20.45;71.82
82006;BME280;71529;47.484;19.064;2023-09-19T08:51:20;100198.28;;;20.56;71.83
82006;BME280;71529;47.484;19.064;2023-09-19T08:53:51;100202.03;;;20.48;71.49
82006;BME280;71529;47.484;19.064;2023-09-19T08:56:22;100205.81;;;20.54;71.88
82006;BME280;71529;47.484;19.064;2023-09-19T08:58:55;100208.97;;;20.57;72.23
82006;BME280;71529;47.484;19.064;2023-09-19T09:01:27;100211.63;;;20.51;72.83
82006;BME280;71529;47.484;19.064;2023-09-19T09:03:56;100224.19;;;20.52;73.25
82006;BME280;71529;47.484;19.064;2023-09-19T09:06:26;100219.19;;;20.55;73.85
82006;BME280;71529;47.484;19.064;2023-09-19T09:08:55;100212.91;;;20.55;72.04
82006;BME280;71529;47.484;19.064;2023-09-19T09:11:23;100203.69;;;20.49;73.33
82006;BME280;71529;47.484;19.064;2023-09-19T09:13:51;100202.03;;;20.48;73.60
82006;BME280;71529;47.484;19.064;2023-09-19T09:16:20;100189.47;;;20.41;73.82
82006;BME280;71529;47.484;19.064;2023-09-19T09:18:50;100169.25;;;20.50;73.63
82006;BME280;71529;47.484;19.064;2023-09-19T09:21:20;100164.84;;;20.42;73.70
82006;BME280;71529;47.484;19.064;2023-09-19T09:23:49;100163.63;;;20.45;73.64
82006;BME280;71529;47.484;19.064;2023-09-19T09:26:40;100160.84;;;20.38;73.81
82006;BME280;71529;47.484;19.064;2023-09-19T09:29:09;100143.97;;;20.43;74.28
82006;BME280;71529;47.484;19.064;2023-09-19T09:31:37;100134.78;;;20.44;72.76
82006;BME280;71529;47.484;19.064;2023-09-19T09:34:10;100129.56;;;20.49;72.49
82006;BME280;71529;47.484;19.064;2023-09-19T09:36:41;100132.75;;;20.59;72.14
82006;BME280;71529;47.484;19.064;2023-09-19T09:39:09;100133.19;;;20.62;72.17
82006;BME280;71529;47.484;19.064;2023-09-19T09:41:45;100145.91;;;20.68;71.60
82006;BME280;71529;47.484;19.064;2023-09-19T09:44:14;100140.91;;;20.59;72.67
82006;BME280;71529;47.484;19.064;2023-09-19T09:46:46;100157.19;;;20.65;71.95
82006;BME280;71529;47.484;19.064;2023-09-19T09:49:47;100171.81;;;20.71;71.41
82006;BME280;71529;47.484;19.064;2023-09-19T09:52:28;100190.56;;;20.59;72.51
82006;BME280;71529;47.484;19.064;2023-09-19T09:54:59;100184.75;;;20.69;72.99
82006;BME280;71529;47.484;19.064;2023-09-19T09:57:33;100188.72;;;20.66;72.55
82006;BME280;71529;47.484;19.064;2023-09-19T10:00:02;100181.84;;;20.70;72.28
82006;BME280;71529;47.484;19.064;2023-09-19T10:02:46;100172.03;;;20.69;72.34
82006;BME280;71529;47.484;19.064;2023-09-19T10:05:17;100176.56;;;20.56;72.59
82006;BME280;71529;47.484;19.064;2023-09-19T10:08:10;100164.06;;;20.68;69.70
82006;BME280;71529;47.484;19.064;2023-09-19T10:10:42;100173.91;;;20.62;71.50
82006;BME280;71529;47.484;19.064;2023-09-19T10:13:22;100171.81;;;20.71;70.78
82006;BME280;71529;47.484;19.064;2023-09-19T10:15:54;100178.50;;;20.68;70.88
82006;BME280;71529;47.484;19.064;2023-09-19T10:18:26;100182.91;;;20.76;71.48
82006;BME280;71529;47.484;19.064;2023-09-19T10:20:59;100188.34;;;20.76;71.34
82006;BME280;71529;47.484;19.064;2023-09-19T10:23:31;100182.50;;;20.79;70.69
82006;BME280;71529;47.484;19.064;2023-09-19T10:26:01;100178.13;;;20.78;70.52
82006;BME280;71529;47.484;19.064;2023-09-19T10:28:30;100192.13;;;20.88;70.89
82006;BME280;71529;47.484;19.064;2023-09-19T10:31:00;100187.31;;;20.83;70.32
82006;BME280;71529;47.484;19.064;2023-09-19T10:33:36;100198.19;;;20.83;70.30
82006;BME280;71529;47.484;19.064;2023-09-19T10:36:06;100193.59;;;20.90;70.25
82006;BME280;71529;47.484;19.064;2023-09-19T10:38:37;100201.75;;;20.90;70.62
82006;BME280;71529;47.484;19.064;2023-09-19T10:41:08;100200.47;;;20.86;70.70
82006;BME280;71529;47.484;19.064;2023-09-19T10:43:39;100195.06;;;20.93;71.76
82006;BME280;71529;47.484;19.064;2023-09-19T10:46:12;100199.69;;;20.99;71.80
82006;BME280;71529;47.484;19.064;2023-09-19T10:48:41;100192.34;;;20.93;70.99
82006;BME280;71529;47.484;19.064;2023-09-19T10:51:15;100198.59;;;20.87;71.55
82006;BME280;71529;47.484;19.064;2023-09-19T10:53:48;100203.00;;;20.94;71.01
82006;BME280;71529;47.484;19.064;2023-09-19T10:56:21;100205.31;;;20.98;70.86
82006;BME280;71529;47.484;19.064;2023-09-19T10:58:51;100205.97;;;21.06;70.38
82006;BME280;71529;47.484;19.064;2023-09-19T11:01:20;100216.03;;;21.19;68.90
82006;BME280;71529;47.484;19.064;2023-09-19T11:03:48;100220.41;;;21.13;70.46
82006;BME280;71529;47.484;19.064;2023-09-19T11:06:39;100220.41;;;21.13;70.03
82006;BME280;71529;47.484;19.064;2023-09-19T11:09:08;100221.88;;;21.16;68.76
82006;BME280;71529;47.484;19.064;2023-09-19T11:11:50;100227.13;;;21.24;68.40
82006;BME280;71529;47.484;19.064;2023-09-19T11:14:40;100227.50;;;21.21;69.46
82006;BME280;71529;47.484;19.064;2023-09-19T11:17:42;100226.47;;;21.22;69.18
82006;BME280;71529;47.484;19.064;2023-09-19T11:20:23;100226.25;;;21.30;70.39
82006;BME280;71529;47.484;19.064;2023-09-19T11:23:22;100232.16;;;21.46;68.43
82006;BME280;71529;47.484;19.064;2023-09-19T11:25:53;100231.53;;;21.38;67.95
82006;BME280;71529;47.484;19.064;2023-09-19T11:28:33;100228.38;;;21.47;68.77
82006;BME280;71529;47.484;19.064;2023-09-19T11:34:42;100216.66;;;21.66;66.01
82006;BME280;71529;47.484;19.064;2023-09-19T11:40:37;100212.47;;;21.77;65.02
82006;BME280;71529;47.484;19.064;2023-09-19T11:43:32;100211.84;;;21.68;65.47
82006;BME280;71529;47.484;19.064;2023-09-19T11:46:07;100200.38;;;21.79;64.68
82006;BME280;71529;47.484;19.064;2023-09-19T11:48:38;100207.28;;;21.82;64.32
82006;BME280;71529;47.484;19.064;2023-09-19T11:51:12;100187.41;;;21.81;62.85
82006;BME280;71529;47.484;19.064;2023-09-19T11:53:46;100186.53;;;21.94;62.87
82006;BME280;71529;47.484;19.064;2023-09-19T11:56:19;100180.25;;;21.93;64.08
82006;BME280;71529;47.484;19.064;2023-09-19T11:58:50;100178.78;;;21.98;62.84
82006;BME280;71529;47.484;19.064;2023-09-19T12:01:23;100185.88;;;21.98;62.79
82006;BME280;71529;47.484;19.064;2023-09-19T12:03:53;100184.63;;;21.94;64.09
82006;BME280;71529;47.484;19.064;2023-09-19T12:06:25;100184.63;;;22.08;62.30
82006;BME280;71529;47.484;19.064;2023-09-19T12:08:53;100185.69;;;22.07;62.54
82006;BME280;71529;47.484;19.064;2023-09-19T12:11:27;100183.38;;;22.10;62.09
82006;BME280;71529;47.484;19.064;2023-09-19T12:13:56;100180.59;;;22.23;60.78
82006;BME280;71529;47.484;19.064;2023-09-19T12:16:27;100178.03;;;22.28;61.51
82006;BME280;71529;47.484;19.064;2023-09-19T12:18:57;100180.13;;;22.26;62.21
82006;BME280;71529;47.484;19.064;2023-09-19T12:21:54;100177.22;;;22.28;60.73
82006;BME280;71529;47.484;19.064;2023-09-19T12:24:26;100188.72;;;22.30;60.96
82006;BME280;71529;47.484;19.064;2023-09-19T12:27:03;100192.06;;;22.32;61.29
82006;BME280;71529;47.484;19.064;2023-09-19T12:29:42;100187.91;;;22.29;61.88
82006;BME280;71529;47.484;19.064;2023-09-19T12:32:11;100187.25;;;22.34;61.46
82006;BME280;71529;47.484;19.064;2023-09-19T12:34:39;100198.97;;;22.34;63.12
82006;BME280;71529;47.484;19.064;2023-09-19T12:37:11;100191.44;;;22.36;61.74
82006;BME280;71529;47.484;19.064;2023-09-19T12:39:43;100205.44;;;22.33;62.74
82006;BME280;71529;47.484;19.064;2023-09-19T12:42:20;100211.28;;;22.37;62.81
82006;BME280;71529;47.484;19.064;2023-09-19T12:44:51;100200.81;;;22.40;62.34
82006;BME280;71529;47.484;19.064;2023-09-19T12:47:23;100218.25;;;22.33;62.35
82006;BME280;71529;47.484;19.064;2023-09-19T12:52:37;100211.47;;;22.42;62.87
82006;BME280;71529;47.484;19.064;2023-09-19T12:55:06;100214.25;;;22.35;63.35
82006;BME280;71529;47.484;19.064;2023-09-19T12:57:37;100208.78;;;22.35;62.54
82006;BME280;71529;47.484;19.064;2023-09-19T13:00:07;100210.03;;;22.39;61.99
82006;BME280;71529;47.484;19.064;2023-09-19T13:03:24;100211.13;;;22.32;63.23
82006;BME280;71529;47.484;19.064;2023-09-19T13:05:54;100199.38;;;22.31;62.83
82006;BME280;71529;47.484;19.064;2023-09-19T13:08:27;100198.78;;;22.29;63.13
82006;BME280;71529;47.484;19.064;2023-09-19T13:11:06;100200.88;;;22.27;63.82
82006;BME280;71529;47.484;19.064;2023-09-19T13:13:38;100196.66;;;22.38;61.82
82006;BME280;71529;47.484;19.064;2023-09-19T13:16:07;100207.94;;;22.41;61.39
82006;BME280;71529;47.484;19.064;2023-09-19T13:18:44;100199.34;;;22.44;60.22
82006;BME280;71529;47.484;19.064;2023-09-19T13:21:13;100203.13;;;22.43;60.56
82006;BME280;71529;47.484;19.064;2023-09-19T13:23:51;100201.66;;;22.41;60.30
82006;BME280;71529;47.484;19.064;2023-09-19T13:26:19;100205.84;;;22.43;61.76
82006;BME280;71529;47.484;19.064;2023-09-19T13:28:47;100217.34;;;22.45;62.26
82006;BME280;71529;47.484;19.064;2023-09-19T13:31:16;100208.13;;;22.46;60.13
82006;BME280;71529;47.484;19.064;2023-09-19T13:33:48;100202.91;;;22.45;60.98
82006;BME280;71529;47.484;19.064;2023-09-19T13:36:17;100214.44;;;22.40;60.30
82006;BME280;71529;47.484;19.064;2023-09-19T13:38:45;100213.22;;;22.36;60.83
82006;BME280;71529;47.484;19.064;2023-09-19T13:41:16;100214.88;;;22.37;60.57
82006;BME280;71529;47.484;19.064;2023-09-19T13:43:44;100237.28;;;22.39;60.71
82006;BME280;71529;47.484;19.064;2023-09-19T13:46:16;100231.00;;;22.32;61.20
82006;BME280;71529;47.484;19.064;2023-09-19T13:48:53;100231.84;;;22.33;61.61
82006;BME280;71529;47.484;19.064;2023-09-19T13:51:22;100240.00;;;22.39;60.60
82006;BME280;71529;47.484;19.064;2023-09-19T13:53:51;100236.84;;;22.36;60.89
82006;BME280;71529;47.484;19.064;2023-09-19T13:56:19;100227.63;;;22.43;60.30
82006;BME280;71529;47.484;19.064;2023-09-19T13:58:47;100236.19;;;22.47;58.65
82006;BME280;71529;47.484;19.064;2023-09-19T14:01:15;100230.94;;;22.52;59.67
82006;BME280;71529;47.484;19.064;2023-09-19T14:03:44;100232.41;;;22.48;60.30
82006;BME280;71529;47.484;19.064;2023-09-19T14:06:15;100239.78;;;22.41;60.46
82006;BME280;71529;47.484;19.064;2023-09-19T14:08:44;100247.31;;;22.39;59.48
82006;BME280;71529;47.484;19.064;2023-09-19T14:11:14;100246.06;;;22.41;60.39
82006;BME280;71529;47.484;19.064;2023-09-19T14:13:43;100242.53;;;22.34;60.84
82006;BME280;71529;47.484;19.064;2023-09-19T14:16:16;100248.13;;;22.46;60.49
82006;BME280;71529;47.484;19.064;2023-09-19T14:18:44;100242.72;;;22.39;60.72
82006;BME280;71529;47.484;19.064;2023-09-19T14:21:14;100237.84;;;22.48;59.19
82006;BME280;71529;47.484;19.064;2023-09-19T14:23:43;100234.09;;;22.42;60.27
82006;BME280;71529;47.484;19.064;2023-09-19T14:26:12;100242.75;;;22.33;61.76
82006;BME280;71529;47.484;19.064;2023-09-19T14:28:41;100244.81;;;22.37;61.49
82006;BME280;71529;47.484;19.064;2023-09-19T14:31:10;100232.66;;;22.33;60.93
82006;BME280;71529;47.484;19.064;2023-09-19T14:33:39;100239.59;;;22.29;61.30
82006;BME280;71529;47.484;19.064;2023-09-19T14:36:09;100237.09;;;22.28;61.30
82006;BME280;71529;47.484;19.064;2023-09-19T14:38:39;100239.81;;;22.28;61.79
82006;BME280;71529;47.484;19.064;2023-09-19T14:41:08;100237.28;;;22.33;60.14
82006;BME280;71529;47.484;19.064;2023-09-19T14:43:36;100230.78;;;22.34;59.19
82006;BME280;71529;47.484;19.064;2023-09-19T14:46:05;100235.59;;;22.32;61.04
82006;BME280;71529;47.484;19.064;2023-09-19T14:48:34;100228.72;;;22.29;60.25
82006;BME280;71529;47.484;19.064;2023-09-19T14:51:03;100234.56;;;22.33;60.81
82006;BME280;71529;47.484;19.064;2023-09-19T14:53:31;100236.88;;;22.29;61.19
82006;BME280;71529;47.484;19.064;2023-09-19T14:56:02;100237.69;;;22.30;60.52
82006;BME280;71529;47.484;19.064;2023-09-19T14:58:32;100237.91;;;22.28;61.23
82006;BME280;71529;47.484;19.064;2023-09-19T15:01:04;100241.06;;;22.25;61.32
82006;BME280;71529;47.484;19.064;2023-09-19T15:03:33;100240.88;;;22.20;61.34
82006;BME280;71529;47.484;19.064;2023-09-19T15:06:04;100241.09;;;22.19;61.68
82006;BME280;71529;47.484;19.064;2023-09-19T15:08:34;100241.91;;;22.19;62.61
82006;BME280;71529;47.484;19.064;2023-09-19T15:11:04;100245.47;;;22.20;62.01
82006;BME280;71529;47.484;19.064;2023-09-19T15:13:35;100235.84;;;22.24;61.10
82006;BME280;71529;47.484;19.064;2023-09-19T15:16:05;100241.94;;;22.26;61.71
82006;BME280;71529;47.484;19.064;2023-09-19T15:18:37;100250.94;;;22.20;62.21
82006;BME280;71529;47.484;19.064;2023-09-19T15:21:07;100249.03;;;22.27;61.61
82006;BME280;71529;47.484;19.064;2023-09-19T15:23:40;100248.41;;;22.18;63.21
82006;BME280;71529;47.484;19.064;2023-09-19T15:26:11;100249.28;;;22.19;62.66
82006;BME280;71529;47.484;19.064;2023-09-19T15:28:40;100258.47;;;22.18;62.82
82006;BME280;71529;47.484;19.064;2023-09-19T15:31:10;100262.25;;;22.17;61.51
82006;BME280;71529;47.484;19.064;2023-09-19T15:33:41;100260.97;;;22.19;61.13
82006;BME280;71529;47.484;19.064;2023-09-19T15:36:11;100266.38;;;22.32;59.84
82006;BME280;71529;47.484;19.064;2023-09-19T15:39:04;100271.63;;;22.27;59.96
82006;BME280;71529;47.484;19.064;2023-09-19T15:41:37;100270.16;;;22.25;59.93
82006;BME280;71529;47.484;19.064;2023-09-19T15:44:11;100268.50;;;22.24;59.46
82006;BME280;71529;47.484;19.064;2023-09-19T15:46:41;100274.38;;;22.27;61.74
82006;BME280;71529;47.484;19.064;2023-09-19T15:49:12;100282.31;;;22.29;60.75
82006;BME280;71529;47.484;19.064;2023-09-19T15:51:41;100284.84;;;22.24;60.64
82006;BME280;71529;47.484;19.064;2023-09-19T15:54:13;100280.66;;;22.28;61.00
82006;BME280;71529;47.484;19.064;2023-09-19T15:56:45;100272.88;;;22.25;59.25
82006;BME280;71529;47.484;19.064;2023-09-19T15:59:16;100272.25;;;22.23;59.26
82006;BME280;71529;47.484;19.064;2023-09-19T16:01:45;100283.38;;;22.28;57.75
82006;BME280;71529;47.484;19.064;2023-09-19T16:04:14;100284.00;;;22.23;60.05
82006;BME280;71529;47.484;19.064;2023-09-19T16:06:44;100276.69;;;22.24;59.66
82006;BME280;71529;47.484;19.064;2023-09-19T16:09:12;100284.84;;;22.17;59.98
82006;BME280;71529;47.484;19.064;2023-09-19T16:11:44;100287.75;;;22.16;59.96
82006;BME280;71529;47.484;19.064;2023-09-19T16:14:14;100287.16;;;22.14;60.28
82006;BME280;71529;47.484;19.064;2023-09-19T16:16:44;100288.19;;;22.13;60.29
82006;BME280;71529;47.484;19.064;2023-09-19T16:19:14;100289.47;;;22.10;60.97
82006;BME280;71529;47.484;19.064;2023-09-19T16:21:44;100285.91;;;22.10;60.71
82006;BME280;71529;47.484;19.064;2023-09-19T16:24:13;100291.13;;;22.11;60.70
82006;BME280;71529;47.484;19.064;2023-09-19T16:26:45;100288.41;;;22.11;61.07
82006;BME280;71529;47.484;19.064;2023-09-19T16:29:13;100280.03;;;22.13;61.71
82006;BME280;71529;47.484;19.064;2023-09-19T16:31:42;100291.34;;;22.10;59.86
82006;BME280;71529;47.484;19.064;2023-09-19T16:34:11;100294.47;;;22.13;60.15
82006;BME280;71529;47.484;19.064;2023-09-19T16:36:40;100282.13;;;22.11;60.08
82006;BME280;71529;47.484;19.064;2023-09-19T16:39:10;100281.91;;;22.12;58.63
82006;BME280;71529;47.484;19.064;2023-09-19T16:41:39;100282.13;;;22.11;60.85
82006;BME280;71529;47.484;19.064;2023-09-19T16:44:10;100289.66;;;22.09;61.63
82006;BME280;71529;47.484;19.064;2023-09-19T16:46:42;100289.88;;;22.07;60.26
82006;BME280;71529;47.484;19.064;2023-09-19T16:49:11;100287.59;;;22.04;60.79
82006;BME280;71529;47.484;19.064;2023-09-19T16:51:40;100289.47;;;22.04;59.85
82006;BME280;71529;47.484;19.064;2023-09-19T16:54:11;100296.81;;;22.03;60.15
82006;BME280;71529;47.484;19.064;2023-09-19T16:56:39;100304.13;;;22.03;62.47
82006;BME280;71529;47.484;19.064;2023-09-19T16:59:08;100308.09;;;22.00;62.32
82006;BME280;71529;47.484;19.064;2023-09-19T17:01:38;100304.53;;;22.06;61.91
82006;BME280;71529;47.484;19.064;2023-09-19T17:04:07;100302.44;;;22.02;62.13
82006;BME280;71529;47.484;19.064;2023-09-19T17:06:37;100305.16;;;21.95;61.70
82006;BME280;71529;47.484;19.064;2023-09-19T17:09:07;100301.00;;;21.92;60.81
82006;BME280;71529;47.484;19.064;2023-09-19T17:11:38;100317.91;;;21.94;61.14
82006;BME280;71529;47.484;19.064;2023-09-19T17:14:06;100324.22;;;21.95;61.32
82006;BME280;71529;47.484;19.064;2023-09-19T17:16:38;100325.91;;;21.96;61.56
82006;BME280;71529;47.484;19.064;2023-09-19T17:19:10;100340.53;;;21.95;62.03
82006;BME280;71529;47.484;19.064;2023-09-19T17:21:40;100333.00;;;21.90;62.79
82006;BME280;71529;47.484;19.064;2023-09-19T17:24:12;100332.38;;;21.88;63.40
82006;BME280;71529;47.484;19.064;2023-09-19T17:26:43;100334.69;;;21.85;61.83
82006;BME280;71529;47.484;19.064;2023-09-19T17:29:15;100343.88;;;21.84;62.47
82006;BME280;71529;47.484;19.064;2023-09-19T17:31:48;100342.84;;;21.85;62.66
82006;BME280;71529;47.484;19.064;2023-09-19T17:34:18;100349.94;;;21.86;61.95
82006;BME280;71529;47.484;19.064;2023-09-19T17:36:48;100344.91;;;21.83;62.41
82006;BME280;71529;47.484;19.064;2023-09-19T17:39:18;100344.06;;;21.82;63.98
82006;BME280;71529;47.484;19.064;2023-09-19T17:41:48;100344.06;;;21.82;63.36
82006;BME280;71529;47.484;19.064;2023-09-19T17:44:20;100342.63;;;21.80;63.04
82006;BME280;71529;47.484;19.064;2023-09-19T17:46:57;100348.88;;;21.80;62.71
82006;BME280;71529;47.484;19.064;2023-09-19T17:49:30;100352.66;;;21.79;62.44
82006;BME280;71529;47.484;19.064;2023-09-19T17:52:00;100349.31;;;21.90;61.67
82006;BME280;71529;47.484;19.064;2023-09-19T17:54:33;100350.38;;;21.83;61.63
82006;BME280;71529;47.484;19.064;2023-09-19T17:57:10;100351.59;;;21.80;62.32
82006;BME280;71529;47.484;19.064;2023-09-19T17:59:43;100354.94;;;21.76;62.81
82006;BME280;71529;47.484;19.064;2023-09-19T18:02:15;100355.56;;;21.71;62.31
82006;BME280;71529;47.484;19.064;2023-09-19T18:04:46;100360.16;;;21.71;62.82
82006;BME280;71529;47.484;19.064;2023-09-19T18:07:19;100367.25;;;21.72;63.39
82006;BME280;71529;47.484;19.064;2023-09-19T18:09:51;100362.88;;;21.71;64.65
82006;BME280;71529;47.484;19.064;2023-09-19T18:12:23;100374.97;;;21.68;63.95
82006;BME280;71529;47.484;19.064;2023-09-19T18:14:54;100370.59;;;21.67;63.88
82006;BME280;71529;47.484;19.064;2023-09-19T18:17:28;100369.97;;;21.65;63.58
82006;BME280;71529;47.484;19.064;2023-09-19T18:20:01;100377.91;;;21.67;63.28
82006;BME280;71529;47.484;19.064;2023-09-19T18:22:37;100380.00;;;21.65;63.79
82006;BME280;71529;47.484;19.064;2023-09-19T18:25:11;100379.19;;;21.64;62.62
82006;BME280;71529;47.484;19.064;2023-09-19T18:27:43;100378.34;;;21.64;62.50
82006;BME280;71529;47.484;19.064;2023-09-19T18:30:15;100380.00;;;21.65;62.21
82006;BME280;71529;47.484;19.064;2023-09-19T18:32:47;100377.28;;;21.65;62.45